createdAt,value
2019-02-25T00:03:51.769Z,10.90
2019-02-25T00:07:57.211Z,10.83
2019-02-25T00:12:02.680Z,12.67
2019-02-25T00:16:09.528Z,9.47
2019-02-25T00:20:15.102Z,13.03
2019-02-25T00:24:20.453Z,14.97
2019-02-25T00:28:25.891Z,13.60
2019-02-25T00:32:31.336Z,14.87
2019-02-25T00:36:36.834Z,16.33
2019-02-25T00:40:42.349Z,11.90
2019-02-25T00:44:47.845Z,11.70
2019-02-25T00:48:53.275Z,13.43
2019-02-25T00:52:58.902Z,10.17
2019-02-25T00:57:04.346Z,12.30
2019-02-25T01:01:09.786Z,13.53
2019-02-25T01:05:16.445Z,10.57
2019-02-25T01:09:21.895Z,16.70
2019-02-25T01:13:27.349Z,11.90
2019-02-25T01:17:32.735Z,12.87
2019-02-25T01:21:38.581Z,11.23
2019-02-25T01:25:44.099Z,11.47
2019-02-25T01:29:49.852Z,11.73
2019-02-25T01:33:55.655Z,11.60
2019-02-25T01:38:01.215Z,13.83
2019-02-25T01:42:06.774Z,10.93
2019-02-25T01:46:12.167Z,11.13
2019-02-25T01:50:17.673Z,11.73
2019-02-25T01:54:23.118Z,10.17
2019-02-25T01:58:28.559Z,9.70
2019-02-25T02:02:33.870Z,14.47
2019-02-25T02:06:39.601Z,14.17
2019-02-25T02:10:45.111Z,9.07
2019-02-25T02:14:50.634Z,9.90
2019-02-25T02:18:55.855Z,10.13
2019-02-25T02:23:01.604Z,10.70
2019-02-25T02:27:07.491Z,10.73
2019-02-25T02:31:12.910Z,11.63
2019-02-25T02:35:18.965Z,11.77
2019-02-25T02:39:24.547Z,13.17
2019-02-25T02:43:30.099Z,8.87
2019-02-25T02:48:04.455Z,10.77
2019-02-25T02:52:10.192Z,9.93
2019-02-25T02:56:15.632Z,14.13
2019-02-25T03:00:21.308Z,10.30
2019-02-25T03:04:26.666Z,11.87
2019-02-25T03:08:32.396Z,12.27
2019-02-25T03:12:38.139Z,11.13
2019-02-25T03:16:43.803Z,10.67
2019-02-25T03:20:49.552Z,10.90
2019-02-25T03:24:55.057Z,11.97
2019-02-25T03:29:00.568Z,12.00
2019-02-25T03:33:06.059Z,13.50
2019-02-25T03:37:11.712Z,9.83
2019-02-25T03:41:17.198Z,12.40
2019-02-25T03:45:23.034Z,11.10
2019-02-25T03:49:28.412Z,9.87
2019-02-25T03:53:34.129Z,12.43
2019-02-25T03:57:40.226Z,10.03
2019-02-25T04:01:45.683Z,10.80
2019-02-25T04:05:51.118Z,13.50
2019-02-25T04:09:56.914Z,12.50
2019-02-25T04:14:02.334Z,9.57
2019-02-25T04:18:07.928Z,10.20
2019-02-25T04:22:13.353Z,12.03
2019-02-25T04:26:18.991Z,9.77
2019-02-25T04:30:24.454Z,13.73
2019-02-25T04:34:29.963Z,17.17
2019-02-25T04:38:35.408Z,14.93
2019-02-25T04:42:41.145Z,15.23
2019-02-25T04:46:46.694Z,17.00
2019-02-25T04:50:52.404Z,14.07
2019-02-25T04:54:57.931Z,13.73
2019-02-25T04:59:03.349Z,21.63
2019-02-25T05:03:09.209Z,15.23
2019-02-25T05:07:14.672Z,15.63
2019-02-25T05:11:21.797Z,17.23
2019-02-25T05:15:27.938Z,13.27
2019-02-25T05:19:33.698Z,15.13
2019-02-25T05:23:39.424Z,18.50
2019-02-25T05:27:44.934Z,14.30
2019-02-25T05:31:50.416Z,16.70
2019-02-25T05:35:55.876Z,16.07
2019-02-25T05:40:01.318Z,15.43
2019-02-25T05:44:08.558Z,19.67
2019-02-25T05:48:14.667Z,28.63
2019-02-25T05:52:20.211Z,15.07
2019-02-25T05:56:25.826Z,14.23
2019-02-25T06:00:32.235Z,17.67
2019-02-25T06:04:37.811Z,18.13
2019-02-25T06:08:43.251Z,13.10
2019-02-25T06:12:48.695Z,14.20
2019-02-25T06:16:54.416Z,13.53
2019-02-25T06:21:01.904Z,15.80
2019-02-25T06:25:08.084Z,20.07
2019-02-25T06:29:13.654Z,16.33
2019-02-25T06:33:19.194Z,19.00
2019-02-25T06:37:25.201Z,12.77
2019-02-25T06:41:30.801Z,14.37
2019-02-25T06:45:36.392Z,19.43
2019-02-25T06:49:42.479Z,18.77
2019-02-25T06:53:47.965Z,23.10
2019-02-25T06:57:53.728Z,15.13
2019-02-25T07:01:59.097Z,17.00
2019-02-25T07:06:24.544Z,15.63
2019-02-25T07:10:52.429Z,26.63
2019-02-25T07:15:04.879Z,19.13
2019-02-25T07:19:30.281Z,18.20
2019-02-25T07:24:01.154Z,16.20
2019-02-25T07:28:24.494Z,14.73
2019-02-25T07:32:59.543Z,18.53
2019-02-25T07:37:30.047Z,13.10
2019-02-25T07:41:44.793Z,11.97
2019-02-25T07:46:07.809Z,10.17
2019-02-25T07:50:47.209Z,9.50
2019-02-25T07:55:19.574Z,12.00
2019-02-25T07:59:43.866Z,13.63
2019-02-25T08:03:55.127Z,12.57
2019-02-25T08:08:12.175Z,14.47
2019-02-25T08:12:23.357Z,14.47
2019-02-25T08:16:56.885Z,14.30
2019-02-25T08:21:13.426Z,7.27
2019-02-25T08:25:47.645Z,10.57
2019-02-25T08:30:09.346Z,10.57
2019-02-25T08:34:34.198Z,10.13
2019-02-25T08:38:52.197Z,11.87
2019-02-25T08:43:10.466Z,12.53
2019-02-25T08:47:20.403Z,9.57
2019-02-25T08:51:26.969Z,10.10
2019-02-25T08:55:32.789Z,12.20
2019-02-25T08:59:38.512Z,12.00
2019-02-25T09:03:45.026Z,9.37
2019-02-25T09:07:50.464Z,7.50
2019-02-25T09:11:56.031Z,6.27
2019-02-25T09:16:01.523Z,11.30
2019-02-25T09:20:07.016Z,9.23
2019-02-25T09:24:12.437Z,6.87
2019-02-25T09:28:17.885Z,6.73
2019-02-25T09:32:23.338Z,6.73
2019-02-25T09:36:28.776Z,9.57
2019-02-25T09:40:34.234Z,8.20
2019-02-25T09:44:39.579Z,6.57
2019-02-25T09:48:45.317Z,8.30
2019-02-25T09:52:51.016Z,10.27
2019-02-25T09:56:56.750Z,7.70
2019-02-25T10:01:02.479Z,5.83
2019-02-25T10:05:08.519Z,12.87
2019-02-25T10:09:13.971Z,6.83
2019-02-25T10:13:19.842Z,7.47
2019-02-25T10:17:25.274Z,8.37
2019-02-25T10:21:31.011Z,7.90
2019-02-25T10:25:36.755Z,8.40
2019-02-25T10:29:42.077Z,5.83
2019-02-25T10:33:50.928Z,9.87
2019-02-25T10:37:56.719Z,6.97
2019-02-25T10:42:02.307Z,6.57
2019-02-25T10:46:09.514Z,8.73
2019-02-25T10:50:15.138Z,5.20
2019-02-25T10:54:21.262Z,5.63
2019-02-25T10:58:30.720Z,4.20
2019-02-25T11:02:43.878Z,3.83
2019-02-25T11:06:42.281Z,5.63
2019-02-25T11:11:06.648Z,5.93
2019-02-25T11:15:13.838Z,4.10
2019-02-25T11:19:19.746Z,9.23
2019-02-25T11:23:25.264Z,5.80
2019-02-25T11:27:33.073Z,3.90
2019-02-25T11:31:38.281Z,3.63
2019-02-25T11:35:45.808Z,2.47
2019-02-25T11:39:52.595Z,3.37
2019-02-25T11:43:58.683Z,3.70
2019-02-25T11:48:04.183Z,4.08
2019-02-25T11:52:09.873Z,4.92
2019-02-25T11:56:15.500Z,2.10
2019-02-25T12:00:22.344Z,5.03
2019-02-25T12:04:28.143Z,5.42
2019-02-25T12:08:33.546Z,4.72
2019-02-25T12:12:38.993Z,3.27
2019-02-25T12:16:44.729Z,4.47
2019-02-25T12:20:50.196Z,3.20
2019-02-25T12:24:55.592Z,4.87
2019-02-25T12:29:10.374Z,5.08
2019-02-25T12:33:08.499Z,7.85
2019-02-25T12:37:13.964Z,3.70
2019-02-25T12:41:19.863Z,3.67
2019-02-25T12:45:25.319Z,4.22
2019-02-25T12:49:31.223Z,3.85
2019-02-25T12:53:37.885Z,3.42
2019-02-25T12:57:43.398Z,3.30
2019-02-25T13:01:49.000Z,3.98
2019-02-25T13:05:54.653Z,3.02
2019-02-25T13:10:00.304Z,3.08
2019-02-25T13:14:05.825Z,3.17
2019-02-25T13:18:11.244Z,2.35
2019-02-25T13:22:16.626Z,5.00
2019-02-25T13:26:22.367Z,3.02
2019-02-25T13:30:27.867Z,4.78
2019-02-25T13:34:33.269Z,2.98
2019-02-25T13:38:38.987Z,2.50
2019-02-25T13:42:44.489Z,2.10
2019-02-25T13:46:50.060Z,2.20
2019-02-25T13:50:55.565Z,2.25
2019-02-25T13:55:01.154Z,2.62
2019-02-25T13:59:07.206Z,5.22
2019-02-25T14:03:12.973Z,5.33
2019-02-25T14:07:18.508Z,3.47
2019-02-25T14:11:23.872Z,4.10
2019-02-25T14:15:29.330Z,2.25
2019-02-25T14:19:34.754Z,8.60
2019-02-25T14:23:40.668Z,4.00
2019-02-25T14:27:46.127Z,4.97
2019-02-25T14:31:52.480Z,6.25
2019-02-25T14:35:58.223Z,2.22
2019-02-25T14:40:05.978Z,5.30
2019-02-25T14:44:11.302Z,2.80
2019-02-25T14:48:20.429Z,2.05
2019-02-25T14:52:26.733Z,2.92
2019-02-25T14:56:31.661Z,3.80
2019-02-25T15:00:38.228Z,3.83
2019-02-25T15:04:43.982Z,4.80
2019-02-25T15:08:49.386Z,4.47
2019-02-25T15:12:58.814Z,3.87
2019-02-25T15:17:03.868Z,4.75
2019-02-25T15:21:11.226Z,5.15
2019-02-25T15:25:17.352Z,4.95
2019-02-25T15:29:23.119Z,5.67
2019-02-25T15:33:30.016Z,6.65
2019-02-25T15:37:36.504Z,5.78
2019-02-25T15:41:43.967Z,4.45
2019-02-25T15:45:49.132Z,5.58
2019-02-25T15:49:59.752Z,8.83
2019-02-25T15:54:02.922Z,4.33
2019-02-25T15:58:08.771Z,6.45
2019-02-25T16:02:14.528Z,5.58
2019-02-25T16:06:19.982Z,5.90
2019-02-25T16:10:25.551Z,7.12
2019-02-25T16:14:31.010Z,5.80
2019-02-25T16:18:36.573Z,6.17
2019-02-25T16:22:42.654Z,6.40
2019-02-25T16:26:48.857Z,6.72
2019-02-25T16:30:54.435Z,8.18
2019-02-25T16:35:00.274Z,6.25
2019-02-25T16:39:09.634Z,8.90
2019-02-25T16:43:15.623Z,11.68
2019-02-25T16:47:31.911Z,14.47
2019-02-25T16:51:30.235Z,9.30
2019-02-25T16:55:35.773Z,9.58
2019-02-25T16:59:41.269Z,10.23
2019-02-25T17:03:48.215Z,8.83
2019-02-25T17:07:55.989Z,11.28
2019-02-25T17:12:02.871Z,8.03
2019-02-25T17:16:17.883Z,9.53
2019-02-25T17:20:16.765Z,8.00
2019-02-25T17:24:24.009Z,9.75
2019-02-25T17:28:29.588Z,10.58
2019-02-25T17:32:35.055Z,7.67
2019-02-25T17:36:40.476Z,10.83
2019-02-25T17:40:45.907Z,10.20
2019-02-25T17:44:53.314Z,9.18
2019-02-25T17:48:58.707Z,8.60
2019-02-25T17:53:05.124Z,10.58
2019-02-25T17:57:13.676Z,11.18
2019-02-25T18:01:21.007Z,9.25
2019-02-25T18:05:26.769Z,9.93
2019-02-25T18:09:32.310Z,12.53
2019-02-25T18:13:38.095Z,9.63
2019-02-25T18:17:44.870Z,11.33
2019-02-25T18:21:51.151Z,10.07
2019-02-25T18:25:58.687Z,10.03
2019-02-25T18:30:05.415Z,9.23
2019-02-25T18:34:12.924Z,9.30
2019-02-25T18:38:18.894Z,8.10
2019-02-25T18:42:24.387Z,12.20
2019-02-25T18:46:30.477Z,10.57
2019-02-25T18:50:36.341Z,13.63
2019-02-25T18:54:43.370Z,11.43
2019-02-25T18:58:49.512Z,12.37
2019-02-25T19:02:56.173Z,16.00
2019-02-25T19:07:03.664Z,12.83
2019-02-25T19:11:13.043Z,14.53
2019-02-25T19:15:17.608Z,11.07
2019-02-25T19:19:23.337Z,13.10
2019-02-25T19:23:31.270Z,10.53
2019-02-25T19:27:36.513Z,13.17
2019-02-25T19:31:42.925Z,15.30
2019-02-25T19:35:48.599Z,11.33
2019-02-25T19:39:54.163Z,14.03
2019-02-25T19:44:03.287Z,13.37
2019-02-25T19:48:07.279Z,18.37
2019-02-25T19:52:14.437Z,14.70
2019-02-25T19:56:20.871Z,14.13
2019-02-25T20:00:28.271Z,14.67
2019-02-25T20:04:35.976Z,13.83
2019-02-25T20:08:42.100Z,13.97
2019-02-25T20:12:53.125Z,11.73
2019-02-25T20:16:59.437Z,16.63
2019-02-25T20:21:06.461Z,16.73
2019-02-25T20:25:14.471Z,17.70
2019-02-25T20:29:19.891Z,16.33
2019-02-25T20:33:30.460Z,15.80
2019-02-25T20:37:33.889Z,17.10
2019-02-25T20:41:40.064Z,16.07
2019-02-25T20:45:45.503Z,19.30
2019-02-25T20:49:53.698Z,18.13
2019-02-25T20:53:59.778Z,17.53
2019-02-25T20:58:05.329Z,17.27
2019-02-25T21:02:15.805Z,15.23
2019-02-25T21:06:21.095Z,18.60
2019-02-25T21:10:32.756Z,23.30
2019-02-25T21:14:42.714Z,19.57
2019-02-25T21:18:52.925Z,19.03
2019-02-25T21:23:02.851Z,16.87
2019-02-25T21:27:06.425Z,22.30
2019-02-25T21:31:16.196Z,18.10
2019-02-25T21:35:23.534Z,21.37
2019-02-25T21:39:27.943Z,20.97
2019-02-25T21:43:35.468Z,19.93
2019-02-25T21:47:41.023Z,22.30
2019-02-25T21:51:48.015Z,15.13
2019-02-25T21:55:55.379Z,19.93
2019-02-25T22:00:02.987Z,21.13
2019-02-25T22:04:12.970Z,19.03
2019-02-25T22:08:26.691Z,15.10
2019-02-25T22:12:33.191Z,21.60
2019-02-25T22:16:44.007Z,21.87
2019-02-25T22:20:49.225Z,19.60
2019-02-25T22:24:54.481Z,22.17
2019-02-25T22:29:01.751Z,18.57
2019-02-25T22:33:12.738Z,17.17
2019-02-25T22:37:16.758Z,20.40
2019-02-25T22:41:22.935Z,24.03
2019-02-25T22:45:31.454Z,20.70
2019-02-25T22:49:36.708Z,23.67
2019-02-25T22:53:42.145Z,18.90
2019-02-25T22:57:50.952Z,19.87
2019-02-25T23:01:55.013Z,23.00
2019-02-25T23:06:00.438Z,18.73
2019-02-25T23:10:08.410Z,20.37
2019-02-25T23:14:14.036Z,22.83
2019-02-25T23:18:28.032Z,17.37
2019-02-25T23:22:34.937Z,23.73
2019-02-25T23:26:41.078Z,22.63
2019-02-25T23:30:46.584Z,23.97
2019-02-25T23:34:52.759Z,18.87
2019-02-25T23:38:59.565Z,28.57
2019-02-25T23:43:07.460Z,28.60
2019-02-25T23:47:13.451Z,22.57
2019-02-25T23:51:19.563Z,25.23
2019-02-25T23:55:27.947Z,24.50
2019-02-25T23:59:34.067Z,21.47
